Time;durP1;ratioP1;P1;durP2;ratioP2;P2;SDS_P1;SDS_P2;PMS_P1;PMS_P2;Temp;Humidity;BMP_temperature;BMP_pressure;BME280_temperature;BME280_humidity;BME280_pressure;Samples;Min_cycle;Max_cycle;Signal;HPM_P1;HPM_P2
2022/05/12 06:26:28;;;;;;;;;6.00;3.00;;;;;20.76;46.89;101741.91;5067412;27;45617;-74
2022/05/12 06:28:53;;;;;;;;;2.33;1.67;;;;;20.86;46.97;101750.06;5061827;28;45787;-74
2022/05/12 06:31:30;;;;;;;;;3.33;2.00;;;;;21.03;46.60;101756.81;5062329;28;45766;-77
2022/05/12 06:33:56;;;;;;;;;3.00;1.67;;;;;21.25;46.18;101760.44;5061773;28;45531;-77
2022/05/12 06:36:22;;;;;;;;;2.00;2.00;;;;;21.44;46.08;101749.78;5070688;27;45998;-74
2022/05/12 06:38:48;;;;;;;;;5.00;3.00;;;;;21.68;45.26;101756.78;5064202;28;45424;-76
2022/05/12 06:41:14;;;;;;;;;3.67;2.00;;;;;21.95;45.00;101759.97;5055490;28;45542;-74
2022/05/12 06:43:45;;;;;;;;;2.00;2.00;;;;;22.18;44.66;101771.47;5067648;28;45530;-76
2022/05/12 06:46:16;;;;;;;;;3.00;3.00;;;;;22.37;44.16;101765.28;5062369;28;45434;-74
2022/05/12 06:48:43;;;;;;;;;2.00;2.00;;;;;22.56;43.68;101770.97;5069088;28;45434;-75
2022/05/12 06:51:09;;;;;;;;;4.00;2.33;;;;;22.68;43.33;101750.91;5071268;27;45517;-74
2022/05/12 06:53:34;;;;;;;;;5.67;2.33;;;;;22.89;42.83;101749.97;5065233;27;45540;-74
2022/05/12 06:56:00;;;;;;;;;4.00;3.00;;;;;23.03;42.83;101746.84;5066031;27;46501;-74
2022/05/12 06:58:25;;;;;;;;;2.00;2.00;;;;;23.23;42.20;101756.81;5067279;28;45455;-76
2022/05/12 07:00:51;;;;;;;;;3.33;3.00;;;;;23.36;41.89;101759.28;5067876;28;45533;-76
2022/05/12 07:03:17;;;;;;;;;5.00;2.00;;;;;23.41;41.59;101752.44;5065687;28;45469;-77
2022/05/12 07:05:44;;;;;;;;;2.67;2.67;;;;;23.59;40.86;101765.28;5054728;28;47011;-77
2022/05/12 07:08:10;;;;;;;;;4.00;2.67;;;;;23.71;40.93;101759.69;5055865;28;45482;-77
2022/05/12 07:10:36;;;;;;;;;5.00;4.00;;;;;23.79;41.08;101754.41;5059570;28;45479;-77
2022/05/12 07:13:02;;;;;;;;;2.33;2.33;;;;;23.87;40.61;101764.50;5053939;28;45749;-74
2022/05/12 07:15:28;;;;;;;;;2.00;2.00;;;;;23.98;40.19;101771.63;5062850;28;45573;-75
2022/05/12 07:17:55;;;;;;;;;2.67;2.33;;;;;24.05;40.27;101762.75;5056955;28;45383;-73
2022/05/12 07:28:34;;;;;;;;;5.00;2.00;;;;;24.30;39.71;101745.97;5066063;28;45800;-81
2022/05/12 07:31:03;;;;;;;;;1.00;1.00;;;;;24.36;39.66;101750.78;5065340;28;46810;-77
2022/05/12 07:33:32;;;;;;;;;2.67;2.67;;;;;24.35;39.27;101751.81;5062002;28;45478;-73
2022/05/12 07:36:00;;;;;;;;;2.00;2.00;;;;;24.32;38.83;101757.56;5057879;28;45763;-77
2022/05/12 07:38:26;;;;;;;;;2.33;1.33;;;;;24.24;39.16;101752.88;5045738;28;45603;-77
2022/05/12 07:40:52;;;;;;;;;6.00;3.00;;;;;24.18;39.42;101753.44;5053260;28;45555;-84
2022/05/12 07:43:17;;;;;;;;;2.00;2.00;;;;;24.27;39.51;101749.00;5052819;28;45397;-78
2022/05/12 07:45:42;;;;;;;;;6.00;3.00;;;;;24.34;39.56;101750.09;5046834;28;45438;-81
2022/05/12 07:48:08;;;;;;;;;3.00;3.00;;;;;24.42;39.53;101755.66;5051130;28;45467;-78
2022/05/12 07:50:33;;;;;;;;;2.00;2.00;;;;;24.47;38.92;101761.47;5045181;28;45312;-78
2022/05/12 07:52:59;;;;;;;;;2.00;2.00;;;;;24.50;38.63;101752.16;5049507;28;45419;-82
2022/05/12 07:55:24;;;;;;;;;2.00;2.00;;;;;24.60;38.68;101761.13;5041439;28;45544;-79
2022/05/12 07:57:50;;;;;;;;;2.00;2.00;;;;;24.65;38.97;101767.94;5052366;28;45949;-77
2022/05/12 08:00:16;;;;;;;;;3.00;3.00;;;;;24.74;38.75;101769.75;5052943;28;45442;-73
2022/05/12 08:02:41;;;;;;;;;2.33;1.67;;;;;24.82;38.69;101772.56;5048802;28;45620;-73
2022/05/12 08:05:07;;;;;;;;;1.00;1.00;;;;;24.92;38.76;101768.94;5045880;28;45548;-73
2022/05/12 08:07:32;;;;;;;;;2.67;2.67;;;;;25.02;38.97;101769.75;5047364;28;45990;-73
2022/05/12 08:10:00;;;;;;;;;2.67;2.67;;;;;25.12;38.94;101770.53;5047898;28;45512;-72
2022/05/12 08:12:27;;;;;;;;;4.00;3.67;;;;;25.21;39.14;101771.47;5050973;28;45431;-73
2022/05/12 08:14:53;;;;;;;;;2.67;2.67;;;;;25.31;39.00;101776.81;5043576;28;45406;-74
2022/05/12 08:17:18;;;;;;;;;3.00;3.00;;;;;25.39;38.99;101771.44;5042404;28;45456;-72
2022/05/12 08:19:43;;;;;;;;;2.50;2.50;;;;;25.46;39.21;101768.97;5041411;28;45521;-71
2022/05/12 08:22:09;;;;;;;;;5.00;2.67;;;;;25.50;39.37;101774.97;5046800;28;45373;-70
2022/05/12 08:24:34;;;;;;;;;3.00;2.33;;;;;25.65;39.11;101783.41;5043635;28;46654;-71
2022/05/12 08:27:00;;;;;;;;;3.00;3.00;;;;;25.75;39.19;101794.22;5047156;28;45442;-73
2022/05/12 08:29:25;;;;;;;;;2.00;2.00;;;;;25.82;39.23;101780.84;5049143;28;45519;-72
2022/05/12 08:31:50;;;;;;;;;2.00;1.67;;;;;25.90;39.12;101798.06;5050129;28;45468;-72
2022/05/12 08:34:16;;;;;;;;;4.33;3.00;;;;;25.89;39.41;101773.72;5042085;28;50049;-71
2022/05/12 08:36:41;;;;;;;;;2.33;1.00;;;;;26.02;39.35;101793.22;5042761;28;45513;-73
2022/05/12 08:39:06;;;;;;;;;1.00;1.00;;;;;26.06;38.77;101791.00;5049864;28;45482;-73
2022/05/12 08:41:51;;;;;;;;;4.00;2.33;;;;;26.16;39.23;101788.19;5050626;28;45550;-72
2022/05/12 08:44:20;;;;;;;;;3.00;2.67;;;;;26.22;39.18;101792.97;5052260;28;46482;-70
2022/05/12 08:46:53;;;;;;;;;2.67;2.67;;;;;26.27;39.62;101798.81;5046960;28;45700;-72
2022/05/12 08:49:29;;;;;;;;;5.33;4.33;;;;;26.34;39.14;101795.44;5049090;28;45475;-71
2022/05/12 08:52:07;;;;;;;;;3.33;1.67;;;;;26.40;39.56;101792.09;5054589;28;45631;-72
2022/05/12 08:54:36;;;;;;;;;3.67;3.33;;;;;26.44;39.58;101786.16;5051645;28;46340;-71
2022/05/12 08:57:06;;;;;;;;;3.00;3.00;;;;;26.48;39.00;101792.09;5047230;28;45500;-71
2022/05/12 08:59:33;;;;;;;;;1.00;1.00;;;;;26.53;39.07;101787.03;5050896;28;45408;-71
2022/05/12 09:02:34;;;;;;;;;2.00;2.00;;;;;26.55;39.16;101773.25;5050105;28;45293;-70
2022/05/12 09:05:11;;;;;;;;;5.00;1.00;;;;;26.63;39.59;101773.28;5049363;28;45798;-74
2022/05/12 09:07:45;;;;;;;;;3.67;2.00;;;;;26.67;39.43;101774.66;5050102;28;45392;-72
2022/05/12 09:10:38;;;;;;;;;3.67;3.00;;;;;26.72;37.59;101773.31;5040599;28;45656;-78
2022/05/12 09:13:20;;;;;;;;;3.00;3.00;;;;;26.74;36.36;101765.84;5050055;28;46104;-73
2022/05/12 09:16:10;;;;;;;;;2.00;2.00;;;;;26.72;36.54;101773.31;5045081;28;45450;-79
2022/05/12 09:18:37;;;;;;;;;3.00;3.00;;;;;26.66;36.31;101766.66;5042788;28;45416;-82
2022/05/12 09:21:06;;;;;;;;;4.00;3.67;;;;;26.67;36.44;101771.94;5054802;28;45376;-81
2022/05/12 09:23:32;;;;;;;;;3.33;3.00;;;;;26.66;36.31;101772.97;5042887;28;45514;-81
2022/05/12 09:25:58;;;;;;;;;3.33;2.00;;;;;26.66;36.50;101774.81;5042359;28;46219;-84
2022/05/12 09:28:34;;;;;;;;;3.33;2.00;;;;;26.69;36.32;101780.78;5054362;28;45697;-83
2022/05/12 09:31:12;;;;;;;;;3.00;2.00;;;;;26.68;35.73;101781.81;5037251;28;45627;-83
2022/05/12 09:33:38;;;;;;;;;2.00;2.00;;;;;26.66;36.26;101766.66;5036562;28;45688;-81
2022/05/12 09:36:08;;;;;;;;;3.67;3.67;;;;;26.65;36.39;101770.41;5039836;28;45932;-83
2022/05/12 09:38:45;;;;;;;;;3.67;3.00;;;;;26.68;36.25;101770.91;5046968;28;45539;-83
2022/05/12 09:41:22;;;;;;;;;3.67;3.67;;;;;26.69;35.98;101767.19;5044536;28;45540;-87
2022/05/12 09:43:50;;;;;;;;;3.00;2.00;;;;;26.70;36.19;101774.31;5046419;28;45617;-84
2022/05/12 09:46:15;;;;;;;;;3.67;3.00;;;;;26.69;35.96;101780.78;5052224;28;45366;-82
2022/05/12 09:48:41;;;;;;;;;5.00;3.67;;;;;26.69;36.45;101779.97;5051795;28;45499;-80
2022/05/12 09:51:39;;;;;;;;;3.67;3.67;;;;;26.67;36.40;101779.25;5046042;28;46592;-80
2022/05/12 09:54:23;;;;;;;;;3.33;2.00;;;;;26.66;35.71;101781.13;5030601;28;46078;-83
2022/05/12 09:57:13;;;;;;;;;4.00;2.00;;;;;26.68;36.08;101775.50;5031264;28;46108;-83
2022/05/12 09:59:40;;;;;;;;;1.67;1.67;;;;;26.64;36.12;101758.66;5029318;28;45422;-84
2022/05/12 10:07:53;;;;;;;;;4.00;3.00;;;;;26.65;36.08;101754.91;5029862;28;45338;-83
2022/05/12 10:08:08;;;;;;;;;1.00;1.00;;;;;26.69;35.56;101766.34;5032277;28;45979;-82
2022/05/12 10:10:34;;;;;;;;;2.67;2.67;;;;;26.64;36.17;101755.94;5027664;28;45669;-83
2022/05/12 10:13:17;;;;;;;;;2.00;2.00;;;;;26.65;35.73;101760.34;5044485;28;45646;-86
2022/05/12 10:15:44;;;;;;;;;2.33;2.33;;;;;26.64;35.76;101752.38;5028041;28;45500;-83
2022/05/12 10:18:24;;;;;;;;;3.33;3.00;;;;;26.65;35.95;101754.91;5031313;28;45429;-80
2022/05/12 10:20:53;;;;;;;;;5.00;3.00;;;;;26.63;35.67;101742.47;5028928;28;52411;-79
2022/05/12 10:23:29;;;;;;;;;2.33;2.00;;;;;26.67;35.18;101750.16;5034336;28;45450;-75
2022/05/12 10:26:10;;;;;;;;;1.67;1.67;;;;;26.55;34.86;101749.63;5031760;28;45599;-76
2022/05/12 10:29:05;;;;;;;;;4.33;4.00;;;;;26.40;35.03;101743.94;5036859;28;46706;-76
2022/05/12 10:31:51;;;;;;;;;5.33;2.67;;;;;26.15;34.69;101749.25;5044034;28;45450;-76
2022/05/12 10:34:23;;;;;;;;;4.00;3.00;;;;;26.07;34.70;101754.63;5043159;28;45404;-75
2022/05/12 10:37:12;;;;;;;;;1.33;1.33;;;;;25.94;34.77;101755.06;5050054;28;45268;-76
2022/05/12 10:39:57;;;;;;;;;3.67;2.00;;;;;25.89;35.23;101755.56;5052264;28;46124;-79
2022/05/12 10:42:45;;;;;;;;;3.67;3.67;;;;;25.90;36.09;101753.69;5049991;28;45643;-79
2022/05/12 10:45:27;;;;;;;;;4.00;2.00;;;;;25.98;36.05;101744.72;5048862;28;45434;-78
2022/05/12 10:48:22;;;;;;;;;4.67;3.33;;;;;26.10;35.97;101745.28;5039009;28;45461;-78
2022/05/12 10:51:02;;;;;;;;;2.67;2.00;;;;;26.20;35.92;101746.03;5050037;28;46049;-78
2022/05/12 10:53:58;;;;;;;;;4.00;4.00;;;;;26.28;35.23;101735.22;5050197;28;45408;-79
2022/05/12 10:56:23;;;;;;;;;3.33;3.33;;;;;26.36;35.37;101741.72;5021300;28;45473;-78
2022/05/12 10:59:15;;;;;;;;;3.00;3.00;;;;;26.37;35.70;101727.94;5040088;28;45439;-79
2022/05/12 11:01:48;;;;;;;;;4.00;2.00;;;;;26.46;35.17;101734.28;5045838;28;47985;-78
2022/05/12 11:04:32;;;;;;;;;2.00;2.00;;;;;26.45;35.71;101721.69;5048393;28;52598;-75
2022/05/12 11:07:20;;;;;;;;;3.00;3.00;;;;;26.49;35.80;101733.09;5048465;28;45843;-75
2022/05/12 11:09:50;;;;;;;;;2.00;2.00;;;;;26.51;35.43;101739.19;5036647;28;45820;-75
2022/05/12 11:12:29;;;;;;;;;2.67;2.67;;;;;26.54;35.96;101745.19;5058153;28;46118;-75
2022/05/12 11:15:09;;;;;;;;;3.33;2.00;;;;;26.58;36.34;101743.81;5055272;28;45684;-75
2022/05/12 11:18:00;;;;;;;;;2.67;2.67;;;;;26.64;35.73;101741.47;5057413;28;48059;-74
2022/05/12 11:20:36;;;;;;;;;12.00;10.67;;;;;26.72;36.14;101730.59;5039925;28;45537;-79
2022/05/12 11:23:05;;;;;;;;;9.00;4.33;;;;;26.80;34.83;101738.78;5044860;28;46186;-76
2022/05/12 11:25:40;;;;;;;;;3.33;2.33;;;;;26.88;35.14;101740.69;5039438;28;45851;-76
2022/05/12 11:31:09;;;;;;;;;2.67;2.67;;;;;27.00;34.97;101730.34;5044339;28;47210;-76
2022/05/12 11:33:38;;;;;;;;;6.00;4.00;;;;;27.04;35.02;101731.72;5055989;28;45714;-76
2022/05/12 11:36:04;;;;;;;;;5.33;4.67;;;;;27.07;35.14;101735.97;5055573;28;45558;-77
2022/05/12 11:38:43;;;;;;;;;7.33;3.33;;;;;27.06;35.15;101724.22;5045301;28;45745;-77
2022/05/12 11:41:20;;;;;;;;;4.67;3.67;;;;;27.07;35.62;101728.66;5052017;28;45455;-76
2022/05/12 11:47:10;;;;;;;;;3.67;3.67;;;;;27.10;35.14;101722.03;5047500;28;45525;-78
2022/05/12 11:50:00;;;;;;;;;4.00;3.00;;;;;27.09;35.65;101728.47;5045859;28;45579;-77
2022/05/12 11:52:38;;;;;;;;;5.33;4.33;;;;;27.07;35.55;101730.53;5048871;28;45505;-75
2022/05/12 11:55:24;;;;;;;;;5.67;5.67;;;;;27.06;35.35;101726.94;5045883;28;46390;-75
2022/05/12 11:58:28;;;;;;;;;5.67;4.00;;;;;27.02;36.02;101732.91;5051953;28;45535;-75
2022/05/12 12:00:56;;;;;;;;;3.00;3.00;;;;;26.99;36.25;101725.06;5047012;28;45574;-75
2022/05/12 12:03:22;;;;;;;;;6.00;2.33;;;;;27.01;36.11;101725.75;5050251;28;45590;-74
2022/05/12 12:05:47;;;;;;;;;4.67;4.00;;;;;27.01;36.71;101723.03;5046589;28;45952;-73
2022/05/12 12:08:32;;;;;;;;;4.00;4.00;;;;;27.04;36.75;101719.94;5049636;28;45454;-75
2022/05/12 12:11:13;;;;;;;;;4.33;3.67;;;;;27.05;36.57;101722.50;5050189;28;45497;-73
2022/05/12 12:13:40;;;;;;;;;3.00;3.00;;;;;27.08;36.62;101719.47;5051975;28;45493;-74
2022/05/12 12:16:18;;;;;;;;;4.67;3.33;;;;;27.15;36.97;101711.47;5048942;28;45294;-75
2022/05/12 12:18:48;;;;;;;;;3.00;3.00;;;;;27.20;36.69;101706.34;5060880;28;45447;-75
2022/05/12 12:21:46;;;;;;;;;5.00;3.67;;;;;27.27;37.15;101720.16;5051461;28;45469;-75
2022/05/12 12:24:20;;;;;;;;;4.33;4.33;;;;;27.30;36.81;101714.34;5053587;28;45504;-74
2022/05/12 12:26:54;;;;;;;;;4.33;3.00;;;;;27.34;36.97;101714.88;5054783;28;46038;-75
2022/05/12 12:29:42;;;;;;;;;4.00;3.67;;;;;27.39;36.86;101703.44;5051268;28;45286;-75
2022/05/12 12:32:34;;;;;;;;;3.33;3.33;;;;;27.44;37.48;101696.47;5045865;28;45427;-77
2022/05/12 12:35:30;;;;;;;;;4.67;2.33;;;;;27.48;37.08;101706.00;5052417;28;45959;-75
2022/05/12 12:37:55;;;;;;;;;7.33;4.67;;;;;27.53;37.03;101699.16;5050943;28;45478;-74
2022/05/12 12:40:43;;;;;;;;;5.67;3.00;;;;;27.57;37.24;101695.06;5050893;28;45420;-73
2022/05/12 12:43:18;;;;;;;;;5.00;4.00;;;;;27.59;37.69;101698.47;5046080;28;45531;-74
2022/05/12 12:45:48;;;;;;;;;3.00;3.00;;;;;27.63;37.71;101694.41;5053781;28;45609;-75
2022/05/12 12:48:21;;;;;;;;;3.67;1.67;;;;;27.67;37.64;101709.38;5048485;28;45779;-74
2022/05/12 12:50:51;;;;;;;;;3.00;3.00;;;;;27.65;37.59;101697.81;5051165;28;45390;-74
2022/05/12 12:56:35;;;;;;;;;2.00;2.00;;;;;27.75;38.06;101695.72;5050432;28;45461;-74
2022/05/12 12:59:12;;;;;;;;;2.00;2.00;;;;;27.78;37.56;101691.81;5047791;28;46236;-75
2022/05/12 13:01:52;;;;;;;;;3.00;1.00;;;;;27.81;37.83;101698.78;5041234;28;45611;-75
2022/05/12 13:04:24;;;;;;;;;4.33;2.67;;;;;27.82;37.84;101690.44;5036122;28;45523;-74
2022/05/12 13:06:56;;;;;;;;;2.33;2.33;;;;;27.85;38.29;101691.97;5039140;28;45545;-73
2022/05/12 13:09:30;;;;;;;;;5.00;2.00;;;;;27.87;37.85;101689.91;5064727;28;46429;-74
2022/05/12 13:12:07;;;;;;;;;2.67;2.67;;;;;27.89;37.94;101690.59;5053301;28;45722;-74
2022/05/12 13:14:38;;;;;;;;;4.00;2.00;;;;;27.90;37.80;101686.00;5039618;28;45488;-73
2022/05/12 13:17:05;;;;;;;;;3.00;3.00;;;;;27.86;38.09;101682.75;5044122;28;46325;-74
2022/05/12 13:19:37;;;;;;;;;2.00;2.00;;;;;27.89;38.50;101679.69;5053254;28;46863;-75
2022/05/12 13:22:03;;;;;;;;;3.33;3.33;;;;;27.98;38.62;101689.53;5032513;28;45600;-76
2022/05/12 13:24:28;;;;;;;;;6.33;4.00;;;;;28.01;36.46;101691.06;5048995;28;45446;-75
2022/05/12 13:26:59;;;;;;;;;5.33;3.00;;;;;28.03;36.57;101697.19;5051130;28;45420;-74
2022/05/12 13:29:31;;;;;;;;;3.67;2.00;;;;;27.98;36.90;101683.22;5046227;28;45498;-75
2022/05/12 13:32:06;;;;;;;;;5.00;5.00;;;;;27.97;36.37;101666.00;5042226;28;45572;-74
2022/05/12 13:34:34;;;;;;;;;6.00;3.00;;;;;27.98;37.18;101667.72;5049504;28;45532;-74
2022/05/12 13:37:16;;;;;;;;;2.00;2.00;;;;;27.95;37.40;101662.59;5050668;28;45332;-74
2022/05/12 13:39:51;;;;;;;;;7.67;4.67;;;;;27.98;36.95;101656.81;5049606;28;45522;-77
2022/05/12 13:42:29;;;;;;;;;3.33;3.00;;;;;27.99;37.41;101660.34;5051111;28;45494;-75
2022/05/12 13:45:06;;;;;;;;;4.67;4.67;;;;;27.97;37.13;101646.06;5044859;28;45424;-76
2022/05/12 13:47:49;;;;;;;;;4.00;4.00;;;;;27.96;37.05;101650.66;5049098;28;45558;-75
2022/05/12 13:50:15;;;;;;;;;4.00;2.67;;;;;28.00;37.67;101659.34;5046069;28;45416;-76
2022/05/12 13:52:47;;;;;;;;;3.00;2.67;;;;;28.02;37.46;101662.75;5051652;28;50060;-74
2022/05/12 13:55:38;;;;;;;;;4.33;3.00;;;;;27.97;37.80;101652.38;5048515;28;45566;-74
2022/05/12 13:58:04;;;;;;;;;5.00;3.33;;;;;28.04;37.19;101654.38;5042466;28;45507;-74
2022/05/12 14:00:32;;;;;;;;;5.67;3.00;;;;;28.02;37.34;101652.69;5048015;28;45966;-74
2022/05/12 14:03:34;;;;;;;;;2.00;2.00;;;;;28.04;38.05;101648.94;5050825;28;45463;-75
2022/05/12 14:06:10;;;;;;;;;5.00;1.67;;;;;28.06;37.97;101645.00;5047861;28;45564;-75
2022/05/12 14:08:35;;;;;;;;;1.00;1.00;;;;;28.08;37.83;101650.28;5044789;28;46794;-75
2022/05/12 14:11:10;;;;;;;;;3.33;2.33;;;;;28.07;38.20;101643.97;5045580;28;46272;-75
2022/05/12 14:19:15;;;;;;;;;3.33;3.33;;;;;28.04;37.80;101657.97;5050842;28;47820;-76
2022/05/12 14:21:49;;;;;;;;;26.33;18.33;;;;;28.08;37.61;101670.22;5050678;28;45853;-78
2022/05/12 14:24:15;;;;;;;;;4.33;4.33;;;;;28.08;36.92;101683.84;5050745;28;45520;-82
2022/05/12 14:26:42;;;;;;;;;3.00;3.00;;;;;28.02;36.43;101669.06;5049502;28;45583;-77
2022/05/12 14:29:07;;;;;;;;;1.33;1.33;;;;;27.91;35.19;101650.34;5048698;28;45471;-76
2022/05/12 14:31:32;;;;;;;;;2.00;2.00;;;;;27.88;34.55;101637.06;5050374;28;46088;-78
2022/05/12 14:33:58;;;;;;;;;2.00;2.00;;;;;27.85;34.19;101621.03;5044966;28;45386;-79
2022/05/12 14:36:24;;;;;;;;;2.33;2.33;;;;;27.83;34.83;101632.13;5044445;28;45478;-78
2022/05/12 14:38:50;;;;;;;;;2.00;2.00;;;;;27.74;34.43;101641.34;5049040;28;45805;-78
2022/05/12 14:41:15;;;;;;;;;3.00;3.00;;;;;27.75;34.56;101640.34;5050796;28;45509;-78
2022/05/12 14:43:41;;;;;;;;;3.00;2.00;;;;;27.67;34.09;101629.47;5051702;28;45462;-79
2022/05/12 14:46:06;;;;;;;;;4.00;2.00;;;;;27.69;33.99;101630.13;5044743;28;46444;-78
2022/05/12 14:48:32;;;;;;;;;3.67;2.33;;;;;27.59;34.36;101616.69;5054204;28;45510;-76
2022/05/12 14:50:58;;;;;;;;;2.67;2.67;;;;;27.65;34.21;101623.31;5051570;28;45824;-78
2022/05/12 14:53:23;;;;;;;;;4.00;4.00;;;;;27.62;34.44;101621.78;5051311;28;46174;-77
2022/05/12 14:55:48;;;;;;;;;6.33;5.00;;;;;27.65;33.97;101620.59;5045875;28;45434;-79
2022/05/12 14:58:13;;;;;;;;;6.00;3.67;;;;;27.59;34.33;101617.50;5049736;28;45462;-74
2022/05/12 15:00:40;;;;;;;;;3.67;2.00;;;;;27.57;34.40;101614.13;5054564;28;45473;-75
2022/05/12 15:03:07;;;;;;;;;5.00;3.00;;;;;27.56;34.74;101623.34;5044478;28;45446;-73
2022/05/12 15:05:33;;;;;;;;;4.00;3.33;;;;;27.52;34.36;101613.81;5050919;28;45794;-72
2022/05/12 15:08:01;;;;;;;;;7.67;3.00;;;;;27.64;35.04;101625.22;5054602;28;45732;-74
2022/05/12 15:10:27;;;;;;;;;5.00;3.00;;;;;27.65;35.11;101624.19;5052714;28;45993;-74
2022/05/12 15:12:52;;;;;;;;;3.33;2.67;;;;;27.72;35.10;101621.59;5052604;28;45687;-74
2022/05/12 15:15:18;;;;;;;;;6.00;4.00;;;;;27.75;35.24;101627.56;5043566;28;45407;-73
2022/05/12 15:17:45;;;;;;;;;5.00;5.00;;;;;27.80;35.47;101624.31;5049848;28;46442;-74
2022/05/12 15:20:15;;;;;;;;;4.33;3.00;;;;;27.84;35.39;101624.81;5049736;28;46192;-75
2022/05/12 15:22:41;;;;;;;;;3.33;3.00;;;;;27.88;35.38;101629.72;5046682;28;46111;-74
2022/05/12 15:25:09;;;;;;;;;4.67;3.00;;;;;27.92;35.40;101624.78;5048692;28;46350;-73
2022/05/12 15:27:35;;;;;;;;;4.67;3.33;;;;;27.97;35.25;101621.50;5056311;28;46703;-75
2022/05/12 15:30:03;;;;;;;;;4.67;2.33;;;;;28.01;35.84;101628.31;5050387;28;46245;-74
2022/05/12 15:32:29;;;;;;;;;4.00;2.67;;;;;28.04;35.90;101627.97;5048315;28;45581;-74
2022/05/12 15:34:55;;;;;;;;;3.67;3.67;;;;;28.03;35.92;101623.50;5050562;28;45344;-74
2022/05/12 15:37:21;;;;;;;;;2.67;2.67;;;;;28.05;35.40;101626.94;5052761;28;45661;-75
2022/05/12 15:39:47;;;;;;;;;2.00;2.00;;;;;28.06;35.42;101634.06;5052460;28;45538;-74
2022/05/12 15:42:14;;;;;;;;;5.00;3.00;;;;;28.08;35.60;101633.91;5050816;28;45654;-73
2022/05/12 15:44:40;;;;;;;;;3.00;3.00;;;;;28.09;35.81;101632.88;5053554;28;45578;-75
2022/05/12 15:47:13;;;;;;;;;5.67;4.00;;;;;28.08;35.99;101633.91;5049613;28;49726;-73
2022/05/12 15:49:42;;;;;;;;;6.33;3.00;;;;;28.10;36.57;101627.25;5047409;28;46136;-73
2022/05/12 15:52:08;;;;;;;;;3.33;3.33;;;;;28.10;35.91;101624.50;5043421;28;45649;-74
2022/05/12 15:54:34;;;;;;;;;6.33;4.33;;;;;28.10;36.71;101632.69;5043325;28;48743;-73
2022/05/12 15:57:00;;;;;;;;;4.33;4.33;;;;;28.02;36.92;101611.75;5043697;28;45372;-73
2022/05/12 15:59:26;;;;;;;;;4.00;4.00;;;;;28.12;36.92;101619.72;5042403;28;48073;-73
2022/05/12 16:01:51;;;;;;;;;4.33;3.33;;;;;28.10;36.46;101621.78;5045960;28;45413;-74
2022/05/12 16:04:16;;;;;;;;;5.00;4.00;;;;;28.09;37.01;101614.63;5042546;28;46188;-74
2022/05/12 16:06:42;;;;;;;;;4.00;4.00;;;;;28.11;36.75;101628.06;5039855;28;51605;-73
2022/05/12 16:09:08;;;;;;;;;2.00;2.00;;;;;28.04;35.36;101621.66;5043926;28;46095;-77
2022/05/12 16:14:20;;;;;;;;;6.00;4.33;;;;;28.04;35.00;101617.06;5044090;28;45812;-74
2022/05/12 16:16:46;;;;;;;;;3.00;3.00;;;;;28.01;35.89;101617.41;5044801;28;45520;-74
2022/05/12 16:19:11;;;;;;;;;4.00;4.00;;;;;27.93;35.70;101615.56;5045010;28;45817;-74
2022/05/12 16:21:39;;;;;;;;;3.00;3.00;;;;;27.94;35.29;101625.44;5048691;28;45651;-75
2022/05/12 16:24:05;;;;;;;;;4.00;4.00;;;;;27.92;35.86;101622.03;5043884;28;45335;-74
2022/05/12 16:26:35;;;;;;;;;4.00;4.00;;;;;27.88;36.13;101610.63;5041838;28;45514;-74
2022/05/12 16:29:02;;;;;;;;;3.00;3.00;;;;;27.91;35.79;101616.75;5047261;28;47159;-74
2022/05/12 16:31:27;;;;;;;;;3.33;3.33;;;;;27.92;36.17;101613.00;5045665;28;45690;-74
2022/05/12 16:33:52;;;;;;;;;2.67;2.67;;;;;27.91;35.82;101617.59;5043035;28;45792;-75
2022/05/12 16:36:19;;;;;;;;;2.33;2.33;;;;;27.93;36.31;101612.84;5048468;28;45497;-74
2022/05/12 16:38:46;;;;;;;;;4.67;3.00;;;;;27.94;36.63;101611.78;5047882;28;46709;-73
2022/05/12 16:41:12;;;;;;;;;4.00;4.00;;;;;27.92;36.10;101599.38;5045358;28;45412;-81
2022/05/12 16:43:37;;;;;;;;;5.33;3.67;;;;;27.98;35.48;101613.16;5047814;28;46024;-78
2022/05/12 16:46:04;;;;;;;;;3.00;3.00;;;;;27.97;35.37;101618.78;5047926;28;45716;-73
2022/05/12 16:48:30;;;;;;;;;5.00;5.00;;;;;27.91;35.13;101609.41;5049955;28;45731;-74
2022/05/12 16:50:57;;;;;;;;;5.00;3.00;;;;;27.93;35.06;101601.06;5050291;28;46657;-78
2022/05/12 16:53:24;;;;;;;;;4.00;3.67;;;;;27.98;35.08;101623.19;5050180;28;45439;-80
2022/05/12 16:55:54;;;;;;;;;5.00;5.00;;;;;27.99;37.96;101635.81;5050875;28;45371;-73
2022/05/12 16:58:20;;;;;;;;;6.00;6.00;;;;;27.93;37.41;101631.94;5050828;28;46409;-73
2022/05/12 17:00:46;;;;;;;;;8.33;6.67;;;;;27.75;37.63;101613.91;5047804;28;45447;-73
2022/05/12 17:03:11;;;;;;;;;8.67;7.00;;;;;27.75;36.60;101621.25;5052330;28;45430;-72
2022/05/12 17:05:37;;;;;;;;;12.33;7.00;;;;;27.70;36.05;101631.81;5049286;28;45453;-73
2022/05/12 17:08:04;;;;;;;;;3.33;3.00;;;;;27.68;36.26;101625.72;5047746;28;47096;-72
2022/05/12 17:10:30;;;;;;;;;6.67;3.67;;;;;27.67;35.98;101630.31;5048851;28;45494;-74
2022/05/12 17:12:55;;;;;;;;;3.67;3.00;;;;;27.67;35.83;101629.47;5048013;28;45512;-75
2022/05/12 17:15:22;;;;;;;;;4.33;3.00;;;;;27.62;34.71;101621.78;5050475;28;45610;-73
2022/05/12 17:17:48;;;;;;;;;3.67;2.00;;;;;27.53;33.46;101637.31;5050035;28;46086;-73
2022/05/12 17:20:13;;;;;;;;;5.33;4.00;;;;;27.43;33.67;101628.47;5041127;28;45495;-73
2022/05/12 17:22:39;;;;;;;;;6.00;3.00;;;;;27.29;33.43;101632.75;5046165;28;45568;-75
2022/05/12 17:25:06;;;;;;;;;3.67;3.00;;;;;27.23;33.75;101626.13;5049274;28;45379;-74
2022/05/12 17:27:31;;;;;;;;;4.33;3.00;;;;;27.24;34.99;101622.38;5053766;28;45378;-73
2022/05/12 17:29:57;;;;;;;;;5.00;3.00;;;;;27.25;35.04;101613.16;5050006;28;45521;-74
2022/05/12 17:32:24;;;;;;;;;4.33;4.33;;;;;27.31;34.92;101612.50;5049811;28;49472;-74
2022/05/12 17:34:51;;;;;;;;;4.67;4.00;;;;;27.35;34.87;101619.28;5044796;28;45487;-73
2022/05/12 17:37:17;;;;;;;;;4.00;3.67;;;;;27.41;35.12;101620.47;5048099;28;45450;-74
2022/05/12 17:39:43;;;;;;;;;4.33;3.33;;;;;27.41;35.24;101627.78;5049905;28;45608;-73
2022/05/12 17:42:09;;;;;;;;;5.00;4.33;;;;;27.30;34.91;101613.50;5053885;28;45506;-74
2022/05/12 17:44:36;;;;;;;;;5.00;4.00;;;;;27.41;35.14;101633.22;5051815;28;46125;-74
2022/05/12 17:47:09;;;;;;;;;5.00;5.00;;;;;27.41;34.46;101635.97;5047654;28;45434;-74
2022/05/12 17:49:36;;;;;;;;;4.00;3.00;;;;;27.44;34.66;101646.53;5048993;28;45915;-73
2022/05/12 17:52:02;;;;;;;;;3.00;2.67;;;;;27.45;34.96;101643.63;5050829;28;46172;-73
2022/05/12 17:54:28;;;;;;;;;4.67;1.33;;;;;27.43;34.95;101637.47;5049709;28;45482;-73
2022/05/12 17:56:54;;;;;;;;;4.00;4.00;;;;;27.43;34.80;101642.94;5050044;28;47076;-73
2022/05/12 17:59:19;;;;;;;;;3.00;3.00;;;;;27.43;34.31;101645.66;5047586;28;51879;-74
2022/05/12 18:01:44;;;;;;;;;3.00;1.67;;;;;27.45;33.99;101638.19;5046501;28;45792;-73
2022/05/12 18:04:10;;;;;;;;;2.33;2.33;;;;;27.44;33.91;101635.63;5050314;28;45434;-74
2022/05/12 18:06:35;;;;;;;;;6.00;2.67;;;;;27.42;33.67;101645.88;5051543;28;45352;-73
2022/05/12 18:09:01;;;;;;;;;4.33;3.00;;;;;27.43;32.88;101642.09;5050955;28;45505;-73
2022/05/12 18:11:26;;;;;;;;;5.00;1.00;;;;;27.42;33.28;101640.41;5048416;28;45466;-73
2022/05/12 18:13:52;;;;;;;;;1.00;1.00;;;;;27.35;32.99;101642.97;5046480;28;45490;-74
2022/05/12 18:16:18;;;;;;;;;1.00;1.00;;;;;27.35;32.77;101641.09;5046607;28;45478;-74
2022/05/12 18:18:44;;;;;;;;;1.00;1.00;;;;;27.31;33.44;101645.19;5043584;28;45944;-71
2022/05/12 18:21:10;;;;;;;;;1.00;1.00;;;;;27.25;33.48;101634.97;5050570;28;45482;-72
2022/05/12 18:23:36;;;;;;;;;2.33;2.33;;;;;27.24;33.50;101644.16;5043830;28;45484;-71
2022/05/12 18:26:02;;;;;;;;;2.67;2.67;;;;;27.17;33.56;101635.84;5047841;28;46989;-71
2022/05/12 18:28:28;;;;;;;;;1.00;1.00;;;;;27.21;33.91;101644.50;5049966;28;45424;-71
2022/05/12 18:30:54;;;;;;;;;2.00;2.00;;;;;27.21;33.86;101639.06;5050170;28;45758;-72
2022/05/12 18:33:20;;;;;;;;;4.33;2.67;;;;;27.22;33.95;101636.16;5049817;28;45404;-71
2022/05/12 18:35:46;;;;;;;;;2.67;2.00;;;;;27.26;34.69;101633.94;5049664;28;46070;-71